createdAt,value
2018-07-09T00:00:14.292Z,17.00
2018-07-09T00:02:43.609Z,17.08
2018-07-09T00:05:12.924Z,17.20
2018-07-09T00:07:42.236Z,17.40
2018-07-09T00:10:12.846Z,17.48
2018-07-09T00:12:42.282Z,17.45
2018-07-09T00:15:11.590Z,17.23
2018-07-09T00:17:40.904Z,17.31
2018-07-09T00:20:10.229Z,17.56
2018-07-09T00:22:39.512Z,17.53
2018-07-09T00:25:08.867Z,17.73
2018-07-09T00:27:38.186Z,17.53
2018-07-09T00:30:07.530Z,17.46
2018-07-09T00:32:36.857Z,17.17
2018-07-09T00:35:06.205Z,16.67
2018-07-09T00:37:35.789Z,16.77
2018-07-09T00:40:05.636Z,16.82
2018-07-09T00:42:35.486Z,16.70
2018-07-09T00:45:04.843Z,16.89
2018-07-09T00:47:34.289Z,17.08
2018-07-09T00:50:03.606Z,17.02
2018-07-09T00:52:32.924Z,17.10
2018-07-09T00:55:02.468Z,17.04
2018-07-09T00:57:31.904Z,16.96
2018-07-09T01:00:01.290Z,16.57
2018-07-09T01:02:30.705Z,16.43
2018-07-09T01:05:00.086Z,16.11
2018-07-09T01:07:29.414Z,15.73
2018-07-09T01:09:58.798Z,15.92
2018-07-09T01:12:28.201Z,16.25
2018-07-09T01:14:57.555Z,16.17
2018-07-09T01:17:26.903Z,16.16
2018-07-09T01:19:56.394Z,16.18
2018-07-09T01:22:25.736Z,16.40
2018-07-09T01:24:55.028Z,16.35
2018-07-09T01:27:24.387Z,16.14
2018-07-09T01:29:53.656Z,16.16
2018-07-09T01:32:22.932Z,15.85
2018-07-09T01:34:52.239Z,15.97
2018-07-09T01:37:21.525Z,16.24
2018-07-09T01:39:50.868Z,16.24
2018-07-09T01:42:20.144Z,16.38
2018-07-09T01:44:49.457Z,16.13
2018-07-09T01:47:18.706Z,16.37
2018-07-09T01:49:48.010Z,16.16
2018-07-09T01:52:17.345Z,16.58
2018-07-09T01:54:46.654Z,16.68
2018-07-09T01:57:15.926Z,16.80
2018-07-09T01:59:45.292Z,16.74
2018-07-09T02:02:14.565Z,16.42
2018-07-09T02:04:43.862Z,16.01
2018-07-09T02:07:13.146Z,15.98
2018-07-09T02:09:42.482Z,15.71
2018-07-09T02:12:11.767Z,15.74
2018-07-09T02:14:41.090Z,15.95
2018-07-09T02:17:10.361Z,15.84
2018-07-09T02:19:39.630Z,15.64
2018-07-09T02:22:08.996Z,15.66
2018-07-09T02:24:38.251Z,15.92
2018-07-09T02:27:07.648Z,15.75
2018-07-09T02:29:36.925Z,15.70
2018-07-09T02:32:06.315Z,15.84
2018-07-09T02:34:35.658Z,15.80
2018-07-09T02:37:05.026Z,15.60
2018-07-09T02:39:34.392Z,15.49
2018-07-09T02:42:03.697Z,15.69
2018-07-09T02:44:32.989Z,15.52
2018-07-09T02:47:02.269Z,15.58
2018-07-09T02:49:31.661Z,15.63
2018-07-09T02:52:01.009Z,15.79
2018-07-09T02:54:30.327Z,15.93
2018-07-09T02:56:59.658Z,15.92
2018-07-09T02:59:28.961Z,15.91
2018-07-09T03:01:58.292Z,15.87
2018-07-09T03:04:27.638Z,15.66
2018-07-09T03:06:57.145Z,15.82
2018-07-09T03:09:26.444Z,15.73
2018-07-09T03:11:55.800Z,15.70
2018-07-09T03:14:25.124Z,15.45
2018-07-09T03:16:54.412Z,14.68
2018-07-09T03:19:23.770Z,15.16
2018-07-09T03:21:53.096Z,15.51
2018-07-09T03:24:22.419Z,15.66
2018-07-09T03:26:51.706Z,15.88
2018-07-09T03:29:21.026Z,15.51
2018-07-09T03:31:50.388Z,15.97
2018-07-09T03:34:19.718Z,16.13
2018-07-09T03:36:49.054Z,16.08
2018-07-09T03:39:18.375Z,15.86
2018-07-09T03:41:47.702Z,15.54
2018-07-09T03:44:17.074Z,15.85
2018-07-09T03:46:46.385Z,15.63
2018-07-09T03:49:15.733Z,15.70
2018-07-09T03:51:45.051Z,16.09
2018-07-09T03:54:14.363Z,16.26
2018-07-09T03:56:43.684Z,16.40
2018-07-09T03:59:12.975Z,16.06
2018-07-09T04:01:42.316Z,16.42
2018-07-09T04:04:11.647Z,16.06
2018-07-09T04:06:40.957Z,16.05
2018-07-09T04:09:10.258Z,15.66
2018-07-09T04:11:39.578Z,15.71
2018-07-09T04:14:08.979Z,15.65
2018-07-09T04:16:38.312Z,15.65
2018-07-09T04:19:07.625Z,15.66
2018-07-09T04:21:37.004Z,15.58
2018-07-09T04:24:06.391Z,15.49
2018-07-09T04:26:35.726Z,15.31
2018-07-09T04:29:05.018Z,15.37
2018-07-09T04:31:34.310Z,15.44
2018-07-09T04:34:03.690Z,15.51
2018-07-09T04:36:33.060Z,15.58
2018-07-09T04:39:02.554Z,15.98
2018-07-09T04:41:31.836Z,16.41
2018-07-09T04:44:01.123Z,16.79
2018-07-09T04:46:30.453Z,17.20
2018-07-09T04:49:00.034Z,17.51
2018-07-09T04:51:29.499Z,17.34
2018-07-09T04:53:58.909Z,17.81
2018-07-09T04:56:28.463Z,16.86
2018-07-09T04:58:57.794Z,16.81
2018-07-09T05:01:27.108Z,17.64
2018-07-09T05:03:56.441Z,17.36
2018-07-09T05:06:25.723Z,17.75
2018-07-09T05:08:54.994Z,17.75
2018-07-09T05:11:24.364Z,17.59
2018-07-09T05:13:53.684Z,17.54
2018-07-09T05:16:23.097Z,17.25
2018-07-09T05:18:52.416Z,17.10
2018-07-09T05:21:21.778Z,16.86
2018-07-09T05:23:51.098Z,17.56
2018-07-09T05:26:20.458Z,17.27
2018-07-09T05:28:49.844Z,17.57
2018-07-09T05:31:19.190Z,17.25
2018-07-09T05:33:48.591Z,17.51
2018-07-09T05:36:17.893Z,17.72
2018-07-09T05:38:47.282Z,17.51
2018-07-09T05:41:16.650Z,17.93
2018-07-09T05:43:45.995Z,18.30
2018-07-09T05:46:15.296Z,17.73
2018-07-09T05:48:44.653Z,17.76
2018-07-09T05:51:14.042Z,18.54
2018-07-09T05:53:43.397Z,19.39
2018-07-09T05:56:12.743Z,20.78
2018-07-09T05:58:42.108Z,20.34
2018-07-09T06:01:11.588Z,21.28
2018-07-09T06:03:40.956Z,20.82
2018-07-09T06:06:10.282Z,21.33
2018-07-09T06:08:39.738Z,22.18
2018-07-09T06:11:09.065Z,22.19
2018-07-09T06:13:38.486Z,22.91
2018-07-09T06:16:07.744Z,22.78
2018-07-09T06:18:37.138Z,23.34
2018-07-09T06:21:06.620Z,23.83
2018-07-09T06:23:35.948Z,23.88
2018-07-09T06:26:05.363Z,24.72
2018-07-09T06:28:34.811Z,24.86
2018-07-09T06:31:04.141Z,25.06
2018-07-09T06:33:33.578Z,24.78
2018-07-09T06:36:02.901Z,27.31
2018-07-09T06:38:33.019Z,25.24
2018-07-09T06:41:02.372Z,24.93
2018-07-09T06:43:31.721Z,25.55
2018-07-09T06:46:01.106Z,26.72
2018-07-09T06:48:30.407Z,27.18
2018-07-09T06:50:59.751Z,27.41
2018-07-09T06:53:29.076Z,26.81
2018-07-09T06:55:58.483Z,26.33
2018-07-09T06:58:27.887Z,27.03
2018-07-09T07:00:57.193Z,26.65
2018-07-09T07:03:27.530Z,27.23
2018-07-09T07:05:56.852Z,27.60
2018-07-09T07:08:26.230Z,27.17
2018-07-09T07:10:55.758Z,27.31
2018-07-09T07:13:26.029Z,27.97
2018-07-09T07:15:55.364Z,26.89
2018-07-09T07:18:24.783Z,27.87
2018-07-09T07:20:54.076Z,27.32
2018-07-09T07:23:23.416Z,27.09
2018-07-09T07:25:52.751Z,28.08
2018-07-09T07:28:22.144Z,28.21
2018-07-09T07:30:51.437Z,27.89
2018-07-09T07:33:20.757Z,29.38
2018-07-09T07:35:50.024Z,28.61
2018-07-09T07:40:57.553Z,28.36
2018-07-09T07:43:26.981Z,29.06
2018-07-09T07:45:56.364Z,28.57
2018-07-09T07:48:25.776Z,28.85
2018-07-09T07:50:55.128Z,27.64
2018-07-09T07:53:24.451Z,28.40
2018-07-09T07:55:53.801Z,28.23
2018-07-09T07:58:23.216Z,30.24
2018-07-09T08:00:52.624Z,28.47
2018-07-09T08:03:22.009Z,28.59
2018-07-09T08:05:51.747Z,29.41
2018-07-09T08:08:21.069Z,28.69
2018-07-09T08:10:50.429Z,30.45
2018-07-09T08:13:28.997Z,29.67
2018-07-09T08:15:49.151Z,28.95
2018-07-09T08:18:18.543Z,29.46
2018-07-09T08:20:47.844Z,30.44
2018-07-09T08:23:17.191Z,31.62
2018-07-09T08:25:46.630Z,29.67
2018-07-09T08:28:15.964Z,31.42
2018-07-09T08:30:45.389Z,31.22
2018-07-09T08:33:14.710Z,30.82
2018-07-09T08:35:44.120Z,32.97
2018-07-09T08:38:13.484Z,32.43
2018-07-09T08:40:42.888Z,33.52
2018-07-09T08:43:12.244Z,33.23
2018-07-09T08:45:41.754Z,31.64
2018-07-09T08:48:11.168Z,31.87
2018-07-09T08:50:40.476Z,31.51
2018-07-09T08:53:09.810Z,31.99
2018-07-09T08:55:39.178Z,31.67
2018-07-09T08:58:08.563Z,31.81
2018-07-09T09:00:37.955Z,32.89
2018-07-09T09:03:07.404Z,33.73
2018-07-09T09:05:36.798Z,35.07
2018-07-09T09:08:06.175Z,32.88
2018-07-09T09:10:35.498Z,32.92
2018-07-09T09:13:04.881Z,32.70
2018-07-09T09:15:34.292Z,32.83
2018-07-09T09:18:03.644Z,30.89
2018-07-09T09:20:32.970Z,31.39
2018-07-09T09:23:02.288Z,32.44
2018-07-09T09:25:31.748Z,31.63
2018-07-09T09:28:01.042Z,31.59
2018-07-09T09:30:30.415Z,32.47
2018-07-09T09:32:59.907Z,32.73
2018-07-09T09:35:29.269Z,33.79
2018-07-09T09:37:58.682Z,33.94
2018-07-09T09:40:28.023Z,34.12
2018-07-09T09:42:57.369Z,31.85
2018-07-09T09:45:26.730Z,31.05
2018-07-09T09:47:56.108Z,29.67
2018-07-09T09:50:25.435Z,30.55
2018-07-09T09:52:54.746Z,31.66
2018-07-09T09:55:24.037Z,30.97
2018-07-09T09:57:53.321Z,30.53
2018-07-09T10:00:26.819Z,31.95
2018-07-09T10:02:56.114Z,32.55
2018-07-09T10:05:25.487Z,31.88
2018-07-09T10:07:54.770Z,32.78
2018-07-09T10:10:24.079Z,31.75
2018-07-09T10:12:53.436Z,32.78
2018-07-09T10:15:22.763Z,31.75
2018-07-09T10:17:52.079Z,33.57
2018-07-09T10:20:21.450Z,34.00
2018-07-09T10:22:50.878Z,33.68
2018-07-09T10:25:20.204Z,31.72
2018-07-09T10:27:49.591Z,32.66
2018-07-09T10:30:19.045Z,31.86
2018-07-09T10:32:48.399Z,31.96
2018-07-09T10:35:17.737Z,32.04
2018-07-09T10:37:48.060Z,31.34
2018-07-09T10:40:17.387Z,31.19
2018-07-09T10:42:46.769Z,30.02
2018-07-09T10:45:16.152Z,29.92
2018-07-09T10:47:45.544Z,28.01
2018-07-09T10:50:14.896Z,28.05
2018-07-09T10:52:44.262Z,28.34
2018-07-09T10:55:13.755Z,28.24
2018-07-09T10:57:43.186Z,29.34
2018-07-09T11:00:12.546Z,29.68
2018-07-09T11:02:41.877Z,30.90
2018-07-09T11:05:11.262Z,31.77
2018-07-09T11:07:40.651Z,31.11
2018-07-09T11:10:09.983Z,29.58
2018-07-09T11:12:40.416Z,28.56
2018-07-09T11:15:09.746Z,27.77
2018-07-09T11:17:39.104Z,27.81
2018-07-09T11:20:08.449Z,27.41
2018-07-09T11:22:37.779Z,27.42
2018-07-09T11:25:07.237Z,27.22
2018-07-09T11:27:36.654Z,28.00
2018-07-09T11:30:06.090Z,28.65
2018-07-09T11:32:35.497Z,29.33
2018-07-09T11:35:04.870Z,28.30
2018-07-09T11:37:34.248Z,27.37
2018-07-09T11:40:03.620Z,27.26
2018-07-09T11:42:33.037Z,27.43
2018-07-09T11:45:02.394Z,27.58
2018-07-09T11:47:31.733Z,27.72
2018-07-09T11:50:01.093Z,27.87
2018-07-09T11:55:10.308Z,27.23
2018-07-09T11:57:39.757Z,27.36
2018-07-09T12:00:09.552Z,28.06
2018-07-09T12:02:39.034Z,27.70
2018-07-09T12:05:08.843Z,27.97
2018-07-09T12:07:38.260Z,27.58
2018-07-09T12:10:07.776Z,27.96
2018-07-09T12:12:37.322Z,26.91
2018-07-09T12:15:06.746Z,26.83
2018-07-09T12:17:36.259Z,27.43
2018-07-09T12:20:05.720Z,26.77
2018-07-09T12:22:35.114Z,27.06
2018-07-09T12:25:04.937Z,27.77
2018-07-09T12:27:34.347Z,26.88
2018-07-09T12:30:03.806Z,26.97
2018-07-09T12:32:33.109Z,26.71
2018-07-09T12:35:03.898Z,27.30
2018-07-09T12:37:33.551Z,27.78
2018-07-09T12:40:03.044Z,27.06
2018-07-09T12:42:32.407Z,27.19
2018-07-09T12:45:02.125Z,27.41
2018-07-09T12:47:31.501Z,27.12
2018-07-09T12:50:00.998Z,27.38
2018-07-09T12:52:30.460Z,26.82
2018-07-09T12:54:59.973Z,27.04
2018-07-09T12:57:29.404Z,27.39
2018-07-09T12:59:58.808Z,26.28
2018-07-09T13:02:28.252Z,25.77
2018-07-09T13:04:57.816Z,26.94
2018-07-09T13:07:27.196Z,25.68
2018-07-09T13:09:56.600Z,25.57
2018-07-09T13:12:28.201Z,25.48
2018-07-09T13:14:59.500Z,25.14
2018-07-09T13:17:28.983Z,25.20
2018-07-09T13:19:58.437Z,24.83
2018-07-09T13:22:27.909Z,24.88
2018-07-09T13:24:57.432Z,25.23
2018-07-09T13:27:26.818Z,25.44
2018-07-09T13:29:56.371Z,25.77
2018-07-09T13:32:26.199Z,25.29
2018-07-09T13:34:56.210Z,25.61
2018-07-09T13:37:25.774Z,25.24
2018-07-09T13:39:55.379Z,25.08
2018-07-09T13:42:24.948Z,25.39
2018-07-09T13:44:54.431Z,24.67
2018-07-09T13:47:24.059Z,25.03
2018-07-09T13:49:53.818Z,24.08
2018-07-09T13:52:23.298Z,24.72
2018-07-09T13:54:52.810Z,24.46
2018-07-09T13:57:22.344Z,23.61
2018-07-09T13:59:51.813Z,24.59
2018-07-09T14:02:21.351Z,24.69
2018-07-09T14:04:51.194Z,24.91
2018-07-09T14:07:20.760Z,24.37
2018-07-09T14:09:50.169Z,24.51
2018-07-09T14:12:19.527Z,24.72
2018-07-09T14:14:48.967Z,24.87
2018-07-09T14:17:18.444Z,25.66
2018-07-09T14:20:25.200Z,25.75
2018-07-09T14:22:54.624Z,26.24
2018-07-09T14:25:24.288Z,26.16
2018-07-09T14:27:54.027Z,26.17
2018-07-09T14:30:23.685Z,25.98
2018-07-09T14:32:53.028Z,25.48
2018-07-09T14:35:22.591Z,25.86
2018-07-09T14:37:52.428Z,25.42
2018-07-09T14:40:21.830Z,25.32
2018-07-09T14:42:52.461Z,25.44
2018-07-09T14:45:21.958Z,25.24
2018-07-09T14:47:51.432Z,25.97
2018-07-09T14:50:20.820Z,25.68
2018-07-09T14:52:50.244Z,25.22
2018-07-09T14:55:20.750Z,25.98
2018-07-09T14:57:50.569Z,25.49
2018-07-09T15:00:20.031Z,26.40
2018-07-09T15:02:49.622Z,26.30
2018-07-09T15:05:20.080Z,26.37
2018-07-09T15:07:49.713Z,27.11
2018-07-09T15:10:31.309Z,26.68
2018-07-09T15:13:04.205Z,26.20
2018-07-09T15:15:39.913Z,25.76
2018-07-09T15:18:16.142Z,25.43
2018-07-09T15:20:49.026Z,24.81
2018-07-09T15:23:24.302Z,26.04
2018-07-09T15:25:56.862Z,26.40
2018-07-09T15:28:31.459Z,26.05
2018-07-09T15:31:05.060Z,25.85
2018-07-09T15:33:48.283Z,25.68
2018-07-09T15:36:22.619Z,26.12
2018-07-09T15:38:54.390Z,26.08
2018-07-09T15:44:06.717Z,25.62
2018-07-09T15:46:44.298Z,25.46
2018-07-09T15:49:17.091Z,25.98
2018-07-09T15:51:46.538Z,25.59
2018-07-09T15:54:15.885Z,26.58
2018-07-09T15:56:45.325Z,26.05
2018-07-09T15:59:14.730Z,26.61
2018-07-09T16:01:44.086Z,26.26
2018-07-09T16:04:13.535Z,26.23
2018-07-09T16:06:42.864Z,26.54
2018-07-09T16:09:12.185Z,26.59
2018-07-09T16:11:41.653Z,26.47
2018-07-09T16:14:11.030Z,26.10
2018-07-09T16:16:40.468Z,26.32
2018-07-09T16:19:09.834Z,26.34
2018-07-09T16:21:39.221Z,26.36
2018-07-09T16:24:08.646Z,26.27
2018-07-09T16:26:38.006Z,25.95
2018-07-09T16:29:07.419Z,26.20
2018-07-09T16:31:36.746Z,26.46
2018-07-09T16:34:06.113Z,26.17
2018-07-09T16:36:35.511Z,25.26
2018-07-09T16:39:05.981Z,25.98
2018-07-09T16:41:35.734Z,25.58
2018-07-09T16:44:05.168Z,25.87
2018-07-09T16:46:34.513Z,25.81
2018-07-09T16:49:04.071Z,25.12
2018-07-09T16:51:33.533Z,24.85
2018-07-09T16:54:03.572Z,25.34
2018-07-09T16:56:33.067Z,25.36
2018-07-09T16:59:02.480Z,25.80
2018-07-09T17:01:31.970Z,26.10
2018-07-09T17:04:01.369Z,26.02
2018-07-09T17:06:30.847Z,26.05
2018-07-09T17:09:00.340Z,25.80
2018-07-09T17:11:29.797Z,25.64
2018-07-09T17:13:59.297Z,24.77
2018-07-09T17:16:28.821Z,24.76
2018-07-09T17:18:58.276Z,24.56
2018-07-09T17:21:27.757Z,24.52
2018-07-09T17:23:57.172Z,24.19
2018-07-09T17:26:26.646Z,24.45
2018-07-09T17:28:56.011Z,23.91
2018-07-09T17:31:25.395Z,23.98
2018-07-09T17:33:54.786Z,23.54
2018-07-09T17:36:24.176Z,23.92
2018-07-09T17:38:53.748Z,23.12
2018-07-09T17:41:23.066Z,22.57
2018-07-09T17:43:52.523Z,22.28
2018-07-09T17:46:21.861Z,22.04
2018-07-09T17:48:51.225Z,22.60
2018-07-09T17:51:20.549Z,22.54
2018-07-09T17:53:49.981Z,22.50
2018-07-09T17:56:19.310Z,22.69
2018-07-09T17:58:48.757Z,22.98
2018-07-09T18:01:18.475Z,22.73
2018-07-09T18:03:48.331Z,22.46
2018-07-09T18:06:17.679Z,22.84
2018-07-09T18:08:47.072Z,23.09
2018-07-09T18:11:16.437Z,22.76
2018-07-09T18:13:45.798Z,22.78
2018-07-09T18:16:15.293Z,22.38
2018-07-09T18:18:44.771Z,22.08
2018-07-09T18:21:14.198Z,21.72
2018-07-09T18:23:43.608Z,22.00
2018-07-09T18:26:13.047Z,21.79
2018-07-09T18:28:42.457Z,21.90
2018-07-09T18:31:12.194Z,22.14
2018-07-09T18:33:41.547Z,21.84
2018-07-09T18:36:11.040Z,21.91
2018-07-09T18:38:40.763Z,21.96
2018-07-09T18:41:10.164Z,22.20
2018-07-09T18:43:39.689Z,21.94
2018-07-09T18:46:09.142Z,21.62
2018-07-09T18:48:38.523Z,21.91
2018-07-09T18:51:08.014Z,22.23
2018-07-09T18:53:37.390Z,22.17
2018-07-09T18:56:06.892Z,22.30
2018-07-09T18:58:36.360Z,21.84
2018-07-09T19:01:05.794Z,22.36
2018-07-09T19:03:35.157Z,22.26
2018-07-09T19:07:11.861Z,22.32
2018-07-09T19:09:41.337Z,22.04
2018-07-09T19:12:10.836Z,22.19
2018-07-09T19:14:44.231Z,22.46
2018-07-09T19:18:28.820Z,22.18
2018-07-09T19:21:36.495Z,22.36
2018-07-09T19:24:06.070Z,22.17
2018-07-09T19:26:34.444Z,22.34
2018-07-09T19:29:03.284Z,22.49
2018-07-09T19:31:31.621Z,22.14
2018-07-09T19:34:00.017Z,21.85
2018-07-09T19:36:28.396Z,21.38
2018-07-09T19:38:56.614Z,21.21
2018-07-09T19:41:24.889Z,21.12
2018-07-09T19:43:53.252Z,21.81
2018-07-09T19:46:21.585Z,21.65
2018-07-09T19:48:49.777Z,21.31
2018-07-09T19:51:18.013Z,21.20
2018-07-09T19:53:46.242Z,21.26
2018-07-09T19:56:14.502Z,21.30
2018-07-09T19:58:42.880Z,21.51
2018-07-09T20:01:11.141Z,21.58
2018-07-09T20:03:39.399Z,20.97
2018-07-09T20:06:07.611Z,20.70
2018-07-09T20:08:41.035Z,21.38
2018-07-09T20:11:14.377Z,21.62
2018-07-09T20:14:13.663Z,20.61
2018-07-09T20:16:47.163Z,20.77
2018-07-09T20:19:15.432Z,20.42
2018-07-09T20:21:43.654Z,20.71
2018-07-09T20:24:11.878Z,20.83
2018-07-09T20:26:40.069Z,20.60
2018-07-09T20:29:08.333Z,21.06
2018-07-09T20:31:36.584Z,20.51
2018-07-09T20:34:04.813Z,20.44
2018-07-09T20:36:33.140Z,20.99
2018-07-09T20:39:01.405Z,20.62
2018-07-09T20:41:29.689Z,20.59
2018-07-09T20:43:57.922Z,20.93
2018-07-09T20:46:26.148Z,19.91
2018-07-09T20:48:54.475Z,19.98
2018-07-09T20:51:22.697Z,20.20
2018-07-09T20:53:51.016Z,20.40
2018-07-09T20:56:19.387Z,19.65
2018-07-09T20:58:47.657Z,19.66
2018-07-09T21:01:15.929Z,20.21
2018-07-09T21:03:44.123Z,20.04
2018-07-09T21:06:12.306Z,20.29
2018-07-09T21:08:40.529Z,20.05
2018-07-09T21:11:08.720Z,20.26
2018-07-09T21:13:36.966Z,20.28
2018-07-09T21:16:05.545Z,20.06
2018-07-09T21:18:33.532Z,19.55
2018-07-09T21:21:01.806Z,19.46
2018-07-09T21:23:30.022Z,19.37
2018-07-09T21:25:58.213Z,19.70
2018-07-09T21:28:26.463Z,19.38
2018-07-09T21:30:54.708Z,19.69
2018-07-09T21:33:22.885Z,18.46
2018-07-09T21:35:51.078Z,19.51
2018-07-09T21:38:19.273Z,19.60
2018-07-09T21:40:47.484Z,19.21
2018-07-09T21:43:15.782Z,18.94
2018-07-09T21:45:43.957Z,19.19
2018-07-09T21:48:12.138Z,18.96
2018-07-09T21:50:40.374Z,19.22
2018-07-09T21:53:08.616Z,19.21
2018-07-09T21:55:36.831Z,19.44
2018-07-09T21:58:05.050Z,19.04
2018-07-09T22:00:33.322Z,19.64
2018-07-09T22:03:01.550Z,19.22
2018-07-09T22:05:29.724Z,19.10
2018-07-09T22:07:57.980Z,18.72
2018-07-09T22:10:26.170Z,18.53
2018-07-09T22:12:54.406Z,18.99
2018-07-09T22:15:22.577Z,19.03
2018-07-09T22:17:52.742Z,19.56
2018-07-09T22:20:20.976Z,18.96
2018-07-09T22:22:49.148Z,18.95
2018-07-09T22:25:17.369Z,19.27
2018-07-09T22:27:45.542Z,18.47
2018-07-09T22:30:13.797Z,18.26
2018-07-09T22:32:43.220Z,18.28
2018-07-09T22:35:13.388Z,18.09
2018-07-09T22:37:42.680Z,18.27
2018-07-09T22:40:12.044Z,18.36
2018-07-09T22:42:41.372Z,18.29
2018-07-09T22:45:10.716Z,18.40
2018-07-09T22:47:40.315Z,18.84
2018-07-09T22:50:09.722Z,18.49
2018-07-09T22:52:39.044Z,18.59
2018-07-09T22:55:19.377Z,18.89
2018-07-09T22:57:48.726Z,19.18
2018-07-09T23:00:19.244Z,19.06
2018-07-09T23:02:57.605Z,18.41
2018-07-09T23:05:26.984Z,18.53
2018-07-09T23:07:56.296Z,18.18
2018-07-09T23:12:40.680Z,18.14
2018-07-09T23:15:30.518Z,18.46
2018-07-09T23:18:11.304Z,17.89
2018-07-09T23:22:50.621Z,18.29
2018-07-09T23:25:20.018Z,17.85
2018-07-09T23:27:48.248Z,17.90
2018-07-09T23:30:16.468Z,17.85
2018-07-09T23:32:44.701Z,18.05
2018-07-09T23:35:12.885Z,18.21
2018-07-09T23:37:41.078Z,17.77
2018-07-09T23:40:09.303Z,18.36
2018-07-09T23:42:37.485Z,18.32
2018-07-09T23:45:05.784Z,18.26
2018-07-09T23:47:33.953Z,18.03
2018-07-09T23:50:02.238Z,18.44
2018-07-09T23:52:30.425Z,18.33
2018-07-09T23:54:58.601Z,18.17
2018-07-09T23:59:40.997Z,18.11
